Time;durP1;ratioP1;P1;durP2;ratioP2;P2;SDS_P1;SDS_P2;PMS_P1;PMS_P2;Temp;Humidity;BMP_temperature;BMP_pressure;BME280_temperature;BME280_humidity;BME280_pressure;Samples;Min_cycle;Max_cycle;Signal;HPM_P1;HPM_P2
2021/07/21 00:01:19;;;;;;;11.38;8.73;;;512.00;2380.80;;;;;;5092714;28;20085;-66
2021/07/21 00:03:44;;;;;;;15.10;9.57;;;487.30;2380.80;;;;;;5092689;28;20039;-61
2021/07/21 00:06:10;;;;;;;11.63;8.60;;;487.30;2380.80;;;;;;5092753;28;20042;-62
2021/07/21 00:08:36;;;;;;;15.13;9.18;;;487.20;2380.80;;;;;;5092545;28;20547;-66
2021/07/21 00:13:46;;;;;;;11.50;8.88;;;487.10;2380.80;;;;;;5092261;28;20035;-67
2021/07/21 00:16:21;;;;;;;14.07;9.43;;;487.10;2380.80;;;;;;5092837;28;20024;-64
2021/07/21 00:18:50;;;;;;;12.20;9.45;;;487.10;2380.80;;;;;;5092475;28;20043;-65
2021/07/21 00:21:20;;;;;;;12.48;9.82;;;487.00;2380.80;;;;;;5092290;28;20043;-64
2021/07/21 00:23:46;;;;;;;17.65;9.48;;;487.00;2380.80;;;;;;5092462;28;20020;-61
2021/07/21 00:26:12;;;;;;;15.25;9.35;;;486.90;2380.80;;;;;;5092585;28;20032;-62
2021/07/21 00:28:41;;;;;;;16.60;10.30;;;486.80;2380.80;;;;;;5092010;28;20115;-66
2021/07/21 00:31:08;;;;;;;16.35;9.93;;;486.80;2380.80;;;;;;5092046;28;20028;-64
2021/07/21 00:33:34;;;;;;;11.45;8.95;;;486.70;2380.80;;;;;;5092209;28;20123;-64
2021/07/21 00:36:00;;;;;;;18.63;9.77;;;486.70;2380.80;;;;;;5092481;28;20059;-65
2021/07/21 00:38:26;;;;;;;12.88;9.32;;;486.60;2380.80;;;;;;5092066;28;20463;-62
2021/07/21 00:40:51;;;;;;;12.95;9.35;;;486.60;2380.80;;;;;;5092103;28;20036;-63
2021/07/21 00:43:17;;;;;;;16.45;9.27;;;486.70;2380.80;;;;;;5092045;28;20022;-61
2021/07/21 00:45:43;;;;;;;16.98;11.02;;;486.60;2380.80;;;;;;5092132;28;20027;-62
2021/07/21 00:48:09;;;;;;;15.80;9.93;;;486.60;2380.80;;;;;;5091547;28;20069;-63
2021/07/21 00:50:36;;;;;;;15.55;11.27;;;486.60;2380.80;;;;;;5091989;28;20127;-62
2021/07/21 00:53:02;;;;;;;17.02;9.52;;;486.60;2380.80;;;;;;5091963;28;20106;-65
2021/07/21 00:55:28;;;;;;;18.25;10.35;;;486.60;2380.80;;;;;;5091737;28;20056;-63
2021/07/21 00:57:56;;;;;;;15.15;10.85;;;486.60;2380.80;;;;;;5091880;28;20020;-61
2021/07/21 01:00:22;;;;;;;16.15;11.40;;;486.50;2380.80;;;;;;5091675;28;20518;-64
2021/07/21 01:02:48;;;;;;;19.73;10.85;;;486.50;2380.80;;;;;;5091653;28;20028;-65
2021/07/21 01:05:21;;;;;;;13.55;11.20;;;486.50;2380.80;;;;;;5091734;28;20034;-65
2021/07/21 01:07:50;;;;;;;13.60;10.32;;;486.50;2380.80;;;;;;5091603;28;20069;-62
2021/07/21 01:10:17;;;;;;;14.55;11.20;;;486.60;2380.80;;;;;;5091190;28;20036;-63
2021/07/21 01:13:05;;;;;;;19.55;10.73;;;486.60;2380.80;;;;;;5091458;28;20023;-66
2021/07/21 01:15:46;;;;;;;15.38;10.40;;;486.60;2380.80;;;;;;5091468;28;20028;-65
2021/07/21 01:18:23;;;;;;;15.52;11.50;;;486.60;2380.80;;;;;;5091513;28;20097;-63
2021/07/21 01:21:01;;;;;;;19.02;12.02;;;486.60;2380.80;;;;;;5091178;28;20027;-62
2021/07/21 01:23:56;;;;;;;21.85;11.60;;;486.60;2380.80;;;;;;5091259;28;20043;-68
2021/07/21 01:26:26;;;;;;;19.27;12.10;;;486.60;2380.80;;;;;;5091283;28;20024;-63
2021/07/21 01:28:55;;;;;;;14.95;11.10;;;486.70;2380.80;;;;;;5091053;28;20040;-65
2021/07/21 01:31:34;;;;;;;18.52;11.02;;;486.70;2380.80;;;;;;5091399;28;20028;-64
2021/07/21 01:34:02;;;;;;;17.98;11.45;;;486.70;2380.80;;;;;;5091197;28;20032;-66
2021/07/21 01:36:37;;;;;;;19.60;11.85;;;486.70;2380.80;;;;;;5090930;28;20028;-63
2021/07/21 01:39:07;;;;;;;13.50;10.43;;;486.60;2380.80;;;;;;5090944;28;20054;-62
2021/07/21 01:41:40;;;;;;;17.67;11.80;;;486.60;2380.80;;;;;;5091076;28;20394;-66
2021/07/21 01:44:15;;;;;;;19.23;10.40;;;486.60;2380.80;;;;;;5090900;28;20020;-64
2021/07/21 01:46:44;;;;;;;15.65;11.35;;;486.50;2380.80;;;;;;5091069;28;20066;-62
2021/07/21 01:49:11;;;;;;;18.15;12.00;;;486.40;2380.80;;;;;;5090574;28;20050;-61
2021/07/21 01:51:37;;;;;;;16.85;12.45;;;486.40;2380.80;;;;;;5090673;28;20055;-64
2021/07/21 01:54:07;;;;;;;17.75;12.00;;;461.70;2380.80;;;;;;5090766;28;20027;-64
2021/07/21 01:56:34;;;;;;;16.08;12.20;;;461.70;2380.80;;;;;;5090798;28;20111;-62
2021/07/21 01:59:00;;;;;;;16.50;11.52;;;461.70;2380.80;;;;;;5089814;28;20107;-63
2021/07/21 02:01:31;;;;;;;22.65;12.15;;;461.50;2380.80;;;;;;5090330;28;20047;-62
2021/07/21 02:03:58;;;;;;;14.50;10.95;;;461.50;2380.80;;;;;;5090412;28;20119;-63
2021/07/21 02:06:25;;;;;;;17.92;12.00;;;461.50;2380.80;;;;;;5090794;28;20031;-62
2021/07/21 02:08:55;;;;;;;22.42;11.85;;;461.50;2380.80;;;;;;5090637;28;20024;-64
2021/07/21 02:11:21;;;;;;;19.73;12.75;;;461.50;2380.80;;;;;;5090810;28;20020;-65
2021/07/21 02:13:48;;;;;;;15.57;11.88;;;461.50;2380.80;;;;;;5090266;28;20032;-69
2021/07/21 02:16:14;;;;;;;15.52;11.95;;;461.60;2380.80;;;;;;5090210;28;20024;-65
2021/07/21 02:18:41;;;;;;;20.65;12.07;;;461.50;2380.80;;;;;;5090237;28;20057;-63
2021/07/21 02:21:07;;;;;;;17.00;11.70;;;461.50;2380.80;;;;;;5090461;28;20038;-65
2021/07/21 02:23:34;;;;;;;18.00;12.52;;;461.40;2380.80;;;;;;5089798;28;20027;-65
2021/07/21 02:26:01;;;;;;;14.07;11.48;;;461.40;2380.80;;;;;;5090259;28;20028;-65
2021/07/21 02:28:29;;;;;;;15.95;12.00;;;461.40;2380.80;;;;;;5089659;28;20075;-62
2021/07/21 02:30:58;;;;;;;17.48;11.38;;;461.40;2380.80;;;;;;5090136;28;20089;-65
2021/07/21 02:33:47;;;;;;;18.83;12.90;;;461.40;2380.80;;;;;;5089762;28;20489;-64
2021/07/21 02:36:14;;;;;;;15.38;11.52;;;461.40;2380.80;;;;;;5086863;28;20034;-67
2021/07/21 02:38:40;;;;;;;17.83;11.85;;;461.50;2380.80;;;;;;5088535;28;20043;-65
2021/07/21 02:41:06;;;;;;;20.20;12.60;;;461.50;2380.80;;;;;;5089846;28;20441;-62
2021/07/21 02:43:34;;;;;;;18.50;11.95;;;461.50;2380.80;;;;;;5089539;28;20123;-66
2021/07/21 02:45:59;;;;;;;17.83;13.07;;;461.50;2380.80;;;;;;5089905;28;20028;-64
2021/07/21 03:03:05;;;;;;;18.02;12.75;;;461.40;2380.80;;;;;;5107898;27;20426;-59
2021/07/21 03:05:33;;;;;;;16.73;13.05;;;486.50;2380.80;;;;;;5107959;28;20125;-60
2021/07/21 03:08:00;;;;;;;23.17;13.73;;;486.40;2380.80;;;;;;5107560;28;20462;-61
2021/07/21 03:10:27;;;;;;;19.88;11.68;;;461.70;2380.80;;;;;;5107567;28;20069;-60
2021/07/21 03:13:04;;;;;;;18.80;12.77;;;461.70;2380.80;;;;;;5107639;28;20106;-61
2021/07/21 03:15:34;;;;;;;18.00;11.75;;;461.50;2380.80;;;;;;5107745;28;20066;-57
2021/07/21 03:18:01;;;;;;;19.92;12.32;;;461.50;2380.80;;;;;;5108043;28;20031;-58
2021/07/21 03:20:28;;;;;;;15.60;12.25;;;461.40;2380.80;;;;;;5107618;28;20026;-61
2021/07/21 03:22:57;;;;;;;20.45;12.75;;;461.40;2380.80;;;;;;5107254;28;20020;-59
2021/07/21 03:25:26;;;;;;;20.30;13.57;;;461.40;2380.80;;;;;;5107210;28;20469;-58
2021/07/21 03:27:53;;;;;;;20.30;13.05;;;461.20;2380.80;;;;;;5107411;28;20484;-58
2021/07/21 03:30:22;;;;;;;18.58;12.90;;;461.20;2380.80;;;;;;5107275;28;20031;-59
2021/07/21 03:32:48;;;;;;;17.77;11.95;;;461.40;2380.80;;;;;;5107037;28;20040;-58
2021/07/21 03:35:16;;;;;;;17.88;12.70;;;461.40;2380.80;;;;;;5107120;28;20380;-58
2021/07/21 03:37:46;;;;;;;18.67;13.73;;;461.40;2380.80;;;;;;5106839;28;20027;-59
2021/07/21 03:40:13;;;;;;;17.52;12.45;;;461.40;2380.80;;;;;;5107158;28;20107;-58
2021/07/21 03:42:39;;;;;;;23.60;13.70;;;461.40;2380.80;;;;;;5107230;28;20035;-59
2021/07/21 03:45:09;;;;;;;18.92;12.32;;;461.40;2380.80;;;;;;5107129;28;20020;-60
2021/07/21 03:47:36;;;;;;;16.90;12.75;;;461.50;2380.80;;;;;;5106912;28;20386;-58
2021/07/21 03:50:04;;;;;;;18.05;12.45;;;461.50;2380.80;;;;;;5107233;28;20024;-58
2021/07/21 03:52:31;;;;;;;18.70;12.18;;;461.60;2380.80;;;;;;5106592;28;20497;-59
2021/07/21 03:54:57;;;;;;;18.45;11.77;;;461.70;2380.80;;;;;;5106853;28;20039;-59
2021/07/21 03:57:25;;;;;;;14.38;11.18;;;486.40;2380.80;;;;;;5106201;28;20012;-59
2021/07/21 03:59:51;;;;;;;18.02;12.50;;;486.50;2380.80;;;;;;5103980;28;20027;-58
2021/07/21 04:02:18;;;;;;;17.30;12.93;;;486.70;2380.80;;;;;;5102503;28;20067;-58
2021/07/21 04:04:46;;;;;;;19.98;12.57;;;486.80;2380.80;;;;;;5092992;28;20031;-58
2021/07/21 04:07:14;;;;;;;19.45;11.80;;;487.00;2380.80;;;;;;5092845;28;20482;-58
2021/07/21 04:09:44;;;;;;;15.02;12.02;;;487.00;2380.80;;;;;;5093145;28;20062;-58
2021/07/21 04:12:13;;;;;;;17.90;12.27;;;487.10;2380.80;;;;;;5092870;28;20490;-57
2021/07/21 04:14:41;;;;;;;18.58;11.52;;;487.10;2380.80;;;;;;5092356;28;20099;-59
2021/07/21 04:17:07;;;;;;;24.02;12.93;;;487.10;2380.80;;;;;;5092673;28;20043;-58
2021/07/21 04:19:34;;;;;;;15.73;11.63;;;487.20;2380.80;;;;;;5092796;28;20036;-59
2021/07/21 04:22:00;;;;;;;16.05;11.82;;;487.30;2380.80;;;;;;5092832;28;20028;-58
2021/07/21 04:24:26;;;;;;;14.60;11.02;;;512.10;2380.80;;;;;;5092722;28;20020;-59
2021/07/21 04:26:53;;;;;;;18.70;12.75;;;512.10;2380.80;;;;;;5092714;28;20027;-58
2021/07/21 04:29:22;;;;;;;15.75;11.93;;;512.10;2380.80;;;;;;5092802;28;20525;-59
2021/07/21 04:31:49;;;;;;;21.27;12.23;;;512.10;2380.80;;;;;;5092528;28;20048;-58
2021/07/21 04:34:16;;;;;;;19.38;12.55;;;512.30;2380.80;;;;;;5092392;28;20097;-58
2021/07/21 04:36:43;;;;;;;18.08;13.00;;;512.40;2380.80;;;;;;5092285;28;20024;-58
2021/07/21 04:39:12;;;;;;;18.00;12.55;;;512.50;2380.80;;;;;;5092698;28;20059;-60
2021/07/21 04:41:38;;;;;;;18.42;12.38;;;512.70;2380.80;;;;;;5092650;28;20466;-60
2021/07/21 04:44:04;;;;;;;20.65;14.05;;;512.80;2380.80;;;;;;5092327;28;20073;-59
2021/07/21 04:46:35;;;;;;;18.55;12.50;;;512.90;2380.80;;;;;;5092488;28;20024;-58
2021/07/21 04:49:02;;;;;;;18.33;12.48;;;537.80;2406.40;;;;;;5074124;28;20423;-57
2021/07/21 04:51:29;;;;;;;15.52;11.73;;;589.00;2432.00;;;;;;5092137;28;20119;-57
2021/07/21 04:54:00;;;;;;;14.43;11.88;;;589.30;2432.00;;;;;;5092054;28;20024;-58
2021/07/21 04:56:26;;;;;;;19.85;14.23;;;666.00;2201.60;;;;;;5091982;28;20055;-57
2021/07/21 04:58:52;;;;;;;21.98;14.35;;;717.40;1996.80;;;;;;5092336;28;20067;-60
2021/07/21 05:01:18;;;;;;;15.95;13.57;;;743.30;1843.20;;;;;;5092030;28;20059;-57
2021/07/21 05:03:43;;;;;;;19.05;13.60;;;794.00;1689.60;;;;;;5091888;28;20027;-58
2021/07/21 05:06:09;;;;;;;16.05;14.40;;;794.50;1587.20;;;;;;5092095;28;20451;-62
2021/07/21 05:08:35;;;;;;;16.08;14.38;;;819.60;1510.40;;;;;;5092007;28;20138;-62
2021/07/21 05:11:01;;;;;;;15.77;13.85;;;820.00;1459.20;;;;;;5091936;28;20088;-60
2021/07/21 05:13:27;;;;;;;18.02;14.25;;;845.00;1433.60;;;;;;5091700;28;20024;-58
2021/07/21 05:15:52;;;;;;;26.10;14.52;;;870.60;1356.80;;;;;;5091008;28;20412;-59
2021/07/21 05:18:18;;;;;;;17.70;14.85;;;870.90;1331.20;;;;;;5091815;28;20020;-61
2021/07/21 05:20:44;;;;;;;15.23;13.60;;;871.30;1254.40;;;;;;5091551;28;20077;-61
2021/07/21 05:23:10;;;;;;;17.23;15.32;;;896.70;1228.80;;;;;;5091737;28;20056;-62
2021/07/21 05:25:37;;;;;;;17.40;15.68;;;896.90;1203.20;;;;;;5091331;28;20105;-58
2021/07/21 05:28:08;;;;;;;18.30;15.63;;;922.10;1177.60;;;;;;5091462;28;20021;-58
2021/07/21 05:30:34;;;;;;;17.50;15.77;;;922.50;1152.00;;;;;;5091358;28;20107;-58
2021/07/21 05:33:00;;;;;;;18.70;16.55;;;947.40;1126.40;;;;;;5091666;28;20028;-59
2021/07/21 05:35:26;;;;;;;19.88;17.85;;;947.80;1100.80;;;;;;5091240;28;20462;-58
2021/07/21 05:37:56;;;;;;;19.92;17.90;;;973.10;1100.80;;;;;;5091722;28;20024;-63
2021/07/21 05:40:22;;;;;;;18.80;16.65;;;973.60;1100.80;;;;;;5073216;28;20477;-58
2021/07/21 05:42:48;;;;;;;18.83;16.50;;;998.60;1075.20;;;;;;5091377;28;20032;-58
2021/07/21 05:45:14;;;;;;;18.23;16.38;;;999.20;1049.60;;;;;;5090939;28;20485;-59
2021/07/21 05:47:40;;;;;;;20.02;18.13;;;1024.20;998.40;;;;;;5091300;28;20111;-61
2021/07/21 05:50:07;;;;;;;18.73;17.02;;;1024.30;998.40;;;;;;5090905;28;20023;-60
2021/07/21 05:52:33;;;;;;;19.35;17.30;;;1049.60;972.80;;;;;;5090781;28;20036;-59
2021/07/21 05:54:59;;;;;;;20.13;17.90;;;1024.50;947.20;;;;;;5091070;28;20478;-59
2021/07/21 05:57:27;;;;;;;19.83;17.60;;;1024.20;947.20;;;;;;5091262;28;20035;-64
2021/07/21 05:59:53;;;;;;;19.35;17.27;;;999.30;947.20;;;;;;5090506;28;20161;-60
2021/07/21 06:02:19;;;;;;;19.92;18.00;;;1049.90;947.20;;;;;;5090390;28;20545;-59
2021/07/21 06:04:45;;;;;;;18.73;16.77;;;1050.00;947.20;;;;;;5090820;28;20028;-62
2021/07/21 06:07:12;;;;;;;20.25;18.40;;;1049.70;947.20;;;;;;5091033;28;20111;-61
2021/07/21 06:09:37;;;;;;;19.98;18.13;;;1050.30;896.00;;;;;;5090844;28;20571;-62
2021/07/21 06:12:03;;;;;;;22.27;17.80;;;1050.40;870.40;;;;;;5090713;28;20130;-61
2021/07/21 06:14:31;;;;;;;21.60;18.98;;;1050.00;896.00;;;;;;5090834;28;20023;-60
2021/07/21 06:16:57;;;;;;;20.60;18.52;;;1049.80;896.00;;;;;;5090770;28;20020;-59
2021/07/21 06:19:23;;;;;;;22.92;20.73;;;1050.10;896.00;;;;;;5090137;28;20420;-64
2021/07/21 06:21:50;;;;;;;21.02;19.20;;;1049.90;896.00;;;;;;5090656;28;20032;-60
2021/07/21 06:24:17;;;;;;;20.67;18.30;;;1075.30;870.40;;;;;;5090403;28;20078;-59
2021/07/21 06:26:44;;;;;;;22.13;20.30;;;1050.30;870.40;;;;;;5090112;28;20050;-60
2021/07/21 06:29:10;;;;;;;21.02;19.23;;;1050.10;870.40;;;;;;5090443;28;20028;-59
2021/07/21 06:31:36;;;;;;;21.15;19.48;;;1050.00;870.40;;;;;;5090170;28;20044;-59
2021/07/21 06:34:02;;;;;;;34.83;21.15;;;1049.90;870.40;;;;;;5090377;28;20523;-60
2021/07/21 06:36:27;;;;;;;20.25;18.45;;;1049.90;844.80;;;;;;5090421;28;20028;-62
2021/07/21 06:38:53;;;;;;;21.08;19.33;;;1050.50;844.80;;;;;;5090229;28;20472;-62
2021/07/21 06:41:19;;;;;;;20.20;18.30;;;1075.40;844.80;;;;;;5090382;28;20073;-62
2021/07/21 06:43:45;;;;;;;20.35;18.45;;;1050.10;844.80;;;;;;5090101;28;20024;-59
2021/07/21 06:46:12;;;;;;;21.83;19.75;;;1050.40;819.20;;;;;;5088083;28;20043;-66
2021/07/21 06:48:38;;;;;;;20.70;18.50;;;1050.20;844.80;;;;;;5087606;28;20030;-59
2021/07/21 06:51:04;;;;;;;22.65;20.65;;;1050.00;844.80;;;;;;5087356;28;20085;-60
2021/07/21 06:53:30;;;;;;;21.73;19.55;;;1050.00;870.40;;;;;;5087572;28;20408;-62
2021/07/21 06:55:59;;;;;;;22.13;20.17;;;1075.70;819.20;;;;;;5085191;28;20065;-62
2021/07/21 06:58:27;;;;;;;21.23;19.30;;;1100.90;819.20;;;;;;5085777;28;20426;-62
2021/07/21 07:00:53;;;;;;;22.92;20.80;;;1101.40;793.60;;;;;;5085913;28;20040;-60
2021/07/21 07:03:18;;;;;;;20.73;18.58;;;1101.30;768.00;;;;;;5087595;28;20020;-63
2021/07/21 07:05:44;;;;;;;21.75;19.75;;;1101.30;768.00;;;;;;5087554;28;20031;-63
2021/07/21 07:08:10;;;;;;;20.85;18.95;;;1101.00;768.00;;;;;;5087796;28;20099;-64
2021/07/21 07:10:36;;;;;;;18.60;16.90;;;1101.20;768.00;;;;;;5087385;28;20023;-61
2021/07/21 07:13:04;;;;;;;22.13;20.05;;;1126.40;768.00;;;;;;5086724;28;20017;-61
2021/07/21 07:15:31;;;;;;;19.73;18.02;;;1101.40;742.40;;;;;;5069966;28;20094;-61
2021/07/21 07:17:59;;;;;;;18.42;17.10;;;1076.10;768.00;;;;;;5087422;28;20099;-60
2021/07/21 07:20:25;;;;;;;18.98;17.33;;;1075.50;793.60;;;;;;5087724;28;20066;-64
2021/07/21 07:22:50;;;;;;;20.85;18.90;;;1075.80;768.00;;;;;;5089023;28;20048;-65
2021/07/21 07:25:16;;;;;;;15.10;13.70;;;1101.20;768.00;;;;;;5088506;28;20485;-60
2021/07/21 07:27:42;;;;;;;18.35;16.70;;;999.20;870.40;;;;;;5088316;28;20024;-59
2021/07/21 07:30:11;;;;;;;20.50;18.63;;;998.80;870.40;;;;;;5087265;28;20023;-64
2021/07/21 07:32:38;;;;;;;15.48;13.75;;;998.50;921.60;;;;;;5085281;28;20020;-62
2021/07/21 07:35:06;;;;;;;16.02;14.63;;;922.40;896.00;;;;;;5086939;28;20016;-60
2021/07/21 07:37:33;;;;;;;15.45;13.95;;;948.10;896.00;;;;;;5087055;28;20020;-60
2021/07/21 07:39:58;;;;;;;14.55;13.07;;;947.90;896.00;;;;;;5091864;28;20348;-64
2021/07/21 07:42:24;;;;;;;17.23;13.90;;;922.50;921.60;;;;;;5091728;28;20481;-60
2021/07/21 07:44:50;;;;;;;19.02;17.02;;;973.70;896.00;;;;;;5072974;28;20069;-58
2021/07/21 07:47:16;;;;;;;17.90;16.00;;;948.10;896.00;;;;;;5091000;28;20043;-61
2021/07/21 07:49:42;;;;;;;19.10;15.75;;;998.90;896.00;;;;;;5091099;28;20024;-61
2021/07/21 07:52:08;;;;;;;15.32;13.70;;;1049.70;870.40;;;;;;5090704;28;20435;-63
2021/07/21 07:54:34;;;;;;;15.35;13.98;;;1024.60;819.20;;;;;;5090864;28;20451;-63
2021/07/21 07:57:00;;;;;;;16.60;14.88;;;1049.80;819.20;;;;;;5090815;28;20363;-60
2021/07/21 07:59:26;;;;;;;14.43;12.93;;;1050.50;819.20;;;;;;5090446;28;20035;-61
2021/07/21 08:01:52;;;;;;;14.65;13.35;;;1050.10;844.80;;;;;;5072624;28;20044;-62
2021/07/21 08:04:18;;;;;;;16.60;15.13;;;1075.40;819.20;;;;;;5090758;28;20422;-60
2021/07/21 08:06:43;;;;;;;15.13;13.60;;;1075.80;793.60;;;;;;5090655;28;20076;-58
2021/07/21 08:09:12;;;;;;;14.60;13.30;;;1075.90;768.00;;;;;;5090440;28;20028;-65
2021/07/21 08:11:48;;;;;;;15.60;13.95;;;1024.90;793.60;;;;;;5091488;28;20020;-59
2021/07/21 08:14:15;;;;;;;14.05;12.45;;;;;;;;;;5071785;28;20023;-58
2021/07/21 08:16:42;;;;;;;14.65;13.35;;;1050.00;819.20;;;;;;5090418;28;20114;-63
2021/07/21 08:19:09;;;;;;;15.77;14.25;;;1024.40;819.20;;;;;;5090617;28;20028;-62
2021/07/21 08:21:35;;;;;;;13.85;12.65;;;999.10;870.40;;;;;;5091364;28;20032;-59
2021/07/21 08:24:02;;;;;;;15.55;14.05;;;999.00;870.40;;;;;;5091795;28;20030;-59
2021/07/21 08:26:29;;;;;;;15.10;13.52;;;998.70;896.00;;;;;;5091602;28;20036;-65
2021/07/21 08:28:56;;;;;;;15.10;13.20;;;922.50;921.60;;;;;;5091675;28;20040;-59
2021/07/21 08:31:21;;;;;;;13.50;12.10;;;870.90;1049.60;;;;;;5091697;28;20024;-61
2021/07/21 08:33:47;;;;;;;12.43;11.13;;;845.00;1100.80;;;;;;5091105;28;20027;-63
2021/07/21 08:36:13;;;;;;;12.30;10.98;;;819.80;1152.00;;;;;;5090776;28;20036;-62
2021/07/21 08:38:40;;;;;;;13.13;11.55;;;794.30;1177.60;;;;;;5091455;28;20103;-59
2021/07/21 08:41:06;;;;;;;24.23;12.82;;;768.60;1177.60;;;;;;5091350;28;20024;-62
2021/07/21 08:43:33;;;;;;;15.27;11.60;;;768.40;1177.60;;;;;;5091069;28;20059;-61
2021/07/21 08:45:59;;;;;;;12.52;11.23;;;768.60;1228.80;;;;;;5075356;28;20379;-62
2021/07/21 08:48:25;;;;;;;11.57;10.38;;;793.60;1203.20;;;;;;5070440;28;20024;-61
2021/07/21 08:50:51;;;;;;;10.98;9.80;;;793.90;1152.00;;;;;;5060331;28;20107;-59
2021/07/21 08:53:18;;;;;;;12.75;10.75;;;793.70;1152.00;;;;;;5061571;28;20029;-56
2021/07/21 08:55:44;;;;;;;14.32;11.70;;;793.90;1152.00;;;;;;5060167;28;20023;-63
2021/07/21 08:58:12;;;;;;;13.75;11.40;;;793.60;1152.00;;;;;;5060390;28;20386;-63
2021/07/21 09:00:38;;;;;;;10.90;9.80;;;768.50;1177.60;;;;;;5061393;28;20021;-63
2021/07/21 09:03:04;;;;;;;10.82;9.68;;;743.20;1177.60;;;;;;5059652;28;20059;-61
2021/07/21 09:05:30;;;;;;;11.68;9.95;;;743.10;1228.80;;;;;;5070394;28;20466;-63
2021/07/21 09:07:56;;;;;;;13.80;10.13;;;743.30;1177.60;;;;;;5070038;28;20024;-62
2021/07/21 09:10:22;;;;;;;12.07;10.70;;;743.00;1203.20;;;;;;5070712;28;20031;-61
2021/07/21 09:12:50;;;;;;;14.50;10.95;;;743.10;1203.20;;;;;;5070924;28;20082;-60
2021/07/21 09:15:23;;;;;;;11.43;10.23;;;743.10;1177.60;;;;;;5071384;28;20020;-62
2021/07/21 09:17:59;;;;;;;12.55;10.80;;;743.10;1203.20;;;;;;5071581;28;20021;-62
2021/07/21 09:20:25;;;;;;;12.30;10.63;;;743.10;1177.60;;;;;;5071162;28;20115;-62
2021/07/21 09:22:56;;;;;;;11.50;10.30;;;742.60;1254.40;;;;;;5071470;28;20421;-62
2021/07/21 09:25:27;;;;;;;14.95;10.73;;;743.00;1228.80;;;;;;5071311;28;20119;-61
2021/07/21 09:27:55;;;;;;;12.93;9.93;;;743.00;1203.20;;;;;;5071258;28;20086;-62
2021/07/21 09:30:26;;;;;;;10.32;8.82;;;742.60;1203.20;;;;;;5071060;28;20509;-63
2021/07/21 09:32:58;;;;;;;9.77;8.65;;;742.60;1203.20;;;;;;5071509;28;20071;-62
2021/07/21 09:35:29;;;;;;;13.05;9.80;;;742.60;1228.80;;;;;;5071288;28;20032;-62
2021/07/21 09:38:05;;;;;;;11.70;9.38;;;742.70;1254.40;;;;;;5071077;28;20043;-62
2021/07/21 09:40:32;;;;;;;9.88;8.88;;;742.60;1280.00;;;;;;5071066;28;20031;-62
2021/07/21 09:42:58;;;;;;;10.35;9.00;;;742.60;1254.40;;;;;;5070993;28;20352;-62
2021/07/21 09:45:24;;;;;;;10.57;9.35;;;742.50;1280.00;;;;;;5070664;28;20039;-62
2021/07/21 09:47:56;;;;;;;12.23;10.25;;;717.50;1280.00;;;;;;5071182;28;20020;-61
2021/07/21 09:50:31;;;;;;;11.85;9.15;;;717.70;1305.60;;;;;;5071097;28;20064;-61
2021/07/21 09:53:04;;;;;;;12.13;8.98;;;717.70;1254.40;;;;;;5070493;28;20060;-59
2021/07/21 09:55:31;;;;;;;12.40;9.23;;;717.70;1280.00;;;;;;5070692;28;20016;-62
2021/07/21 09:58:07;;;;;;;11.95;9.05;;;742.50;1305.60;;;;;;5052080;28;20390;-64
2021/07/21 10:00:36;;;;;;;11.48;8.30;;;742.60;1280.00;;;;;;5069643;28;20033;-61
2021/07/21 10:03:10;;;;;;;10.77;9.40;;;742.50;1305.60;;;;;;5070368;28;20475;-63
2021/07/21 10:05:56;;;;;;;10.18;9.02;;;742.50;1254.40;;;;;;5070395;28;20047;-61
2021/07/21 10:08:39;;;;;;;9.38;8.35;;;717.70;1254.40;;;;;;5070061;28;20040;-61
2021/07/21 10:11:27;;;;;;;12.60;8.55;;;742.40;1305.60;;;;;;5070795;28;20023;-61
2021/07/21 10:14:01;;;;;;;11.20;8.55;;;717.70;1280.00;;;;;;5070313;28;20504;-60
2021/07/21 10:16:36;;;;;;;9.40;8.10;;;717.50;1228.80;;;;;;5070240;28;20116;-59
2021/07/21 10:19:09;;;;;;;8.18;7.32;;;717.30;1280.00;;;;;;5070319;28;20103;-58
2021/07/21 10:21:35;;;;;;;;;;;717.40;1280.00;;;;;;5070454;28;20532;-59
2021/07/21 10:24:01;;;;;;;11.50;8.73;;;717.40;1280.00;;;;;;5070537;28;19904;-62
2021/07/21 10:26:27;;;;;;;10.07;8.55;;;717.10;1305.60;;;;;;5070054;28;20021;-59
2021/07/21 10:28:58;;;;;;;10.15;8.02;;;716.90;1280.00;;;;;;5070169;28;20023;-61
2021/07/21 10:31:24;;;;;;;11.93;8.90;;;716.90;1305.60;;;;;;5070000;28;20110;-59
2021/07/21 10:33:50;;;;;;;11.27;8.45;;;692.00;1280.00;;;;;;5070311;28;20104;-59
2021/07/21 10:36:18;;;;;;;11.00;9.20;;;691.70;1331.20;;;;;;5070097;28;20103;-59
2021/07/21 10:38:44;;;;;;;11.77;9.77;;;691.60;1305.60;;;;;;5069850;28;20111;-61
2021/07/21 10:41:10;;;;;;;10.40;8.70;;;692.10;1305.60;;;;;;5070195;28;20028;-62
2021/07/21 10:43:36;;;;;;;9.70;8.43;;;716.80;1331.20;;;;;;5070146;28;20024;-61
2021/07/21 10:46:04;;;;;;;11.05;9.23;;;717.20;1356.80;;;;;;5070222;28;20025;-60
2021/07/21 10:48:44;;;;;;;10.05;9.02;;;717.50;1331.20;;;;;;5070212;28;20033;-60
2021/07/21 10:51:33;;;;;;;12.15;9.05;;;717.30;1331.20;;;;;;5070104;28;20068;-60
2021/07/21 10:54:11;;;;;;;11.63;8.32;;;717.10;1356.80;;;;;;5069901;28;20024;-59
2021/07/21 10:59:23;;;;;;;9.63;8.38;;;717.20;1331.20;;;;;;5070099;28;20031;-62
2021/07/21 11:01:49;;;;;;;12.35;8.82;;;717.20;1305.60;;;;;;5069683;28;20498;-60
2021/07/21 11:04:16;;;;;;;12.52;9.43;;;717.30;1305.60;;;;;;5069811;28;20458;-59
2021/07/21 11:06:50;;;;;;;10.05;9.02;;;717.10;1356.80;;;;;;5069960;28;20551;-59
2021/07/21 11:09:22;;;;;;;15.68;7.97;;;716.90;1382.40;;;;;;5069551;28;20033;-60
2021/07/21 11:11:52;;;;;;;14.67;8.37;;;716.90;1356.80;;;;;;5070052;28;20036;-59
2021/07/21 11:14:24;;;;;;;9.55;8.30;;;717.10;1356.80;;;;;;5073767;28;20096;-60
2021/07/21 11:16:52;;;;;;;11.00;8.38;;;717.10;1331.20;;;;;;5073927;28;20028;-58
2021/07/21 11:19:31;;;;;;;11.82;9.23;;;717.20;1331.20;;;;;;5073691;28;20028;-59
2021/07/21 11:22:02;;;;;;;12.07;8.98;;;717.40;1305.60;;;;;;5073409;28;20029;-59
2021/07/21 11:24:30;;;;;;;11.45;8.90;;;717.40;1331.20;;;;;;5073886;28;20036;-59
2021/07/21 11:26:56;;;;;;;10.52;8.90;;;717.50;1331.20;;;;;;5073746;28;20028;-61
2021/07/21 11:29:25;;;;;;;10.65;7.88;;;717.40;1331.20;;;;;;5073728;28;20021;-61
2021/07/21 11:31:54;;;;;;;14.48;10.10;;;717.40;1356.80;;;;;;5073504;28;20040;-59
2021/07/21 11:34:29;;;;;;;11.68;9.00;;;717.40;1331.20;;;;;;5073721;28;20025;-59
2021/07/21 11:37:07;;;;;;;13.50;9.05;;;717.40;1356.80;;;;;;5073600;28;20051;-60
2021/07/21 11:39:54;;;;;;;12.93;8.75;;;717.50;1331.20;;;;;;5073429;28;20025;-59
2021/07/21 11:42:23;;;;;;;10.40;9.30;;;717.70;1331.20;;;;;;5055198;28;20068;-59
2021/07/21 11:44:50;;;;;;;12.50;9.57;;;742.60;1356.80;;;;;;5073424;28;20063;-59
2021/07/21 11:47:18;;;;;;;9.35;7.72;;;742.60;1356.80;;;;;;5072924;28;20082;-59
2021/07/21 11:50:20;;;;;;;11.52;9.52;;;717.70;1305.60;;;;;;5073243;28;20075;-59
2021/07/21 11:53:00;;;;;;;9.77;7.60;;;717.50;1331.20;;;;;;5073024;28;20103;-59
2021/07/21 11:55:28;;;;;;;11.80;8.75;;;717.20;1356.80;;;;;;5072980;28;20036;-63
2021/07/21 11:57:55;;;;;;;11.48;8.60;;;716.90;1382.40;;;;;;5055053;28;20386;-61
2021/07/21 12:00:22;;;;;;;9.55;8.27;;;717.00;1382.40;;;;;;5072905;28;20024;-60
2021/07/21 12:03:02;;;;;;;10.73;8.13;;;692.00;1356.80;;;;;;5072825;28;20052;-59
2021/07/21 12:05:28;;;;;;;12.90;9.10;;;691.80;1356.80;;;;;;5072935;28;20028;-59
2021/07/21 12:08:00;;;;;;;10.68;8.45;;;691.80;1356.80;;;;;;5072739;28;20052;-61
2021/07/21 12:10:26;;;;;;;11.27;8.90;;;691.80;1331.20;;;;;;5073032;28;20024;-60
2021/07/21 12:12:54;;;;;;;9.52;8.45;;;691.90;1331.20;;;;;;5072957;28;20055;-58
2021/07/21 12:15:20;;;;;;;8.32;6.38;;;691.70;1356.80;;;;;;5072899;28;20079;-59
2021/07/21 12:17:45;;;;;;;12.27;8.48;;;691.90;1331.20;;;;;;5072461;28;20474;-60
2021/07/21 12:20:15;;;;;;;9.90;8.05;;;691.90;1331.20;;;;;;5072803;28;20032;-60
2021/07/21 12:22:44;;;;;;;11.95;8.13;;;716.80;1356.80;;;;;;5072418;28;20123;-60
2021/07/21 12:25:17;;;;;;;13.80;8.38;;;716.90;1331.20;;;;;;5072429;28;20047;-60
2021/07/21 12:27:48;;;;;;;;;;;716.80;1305.60;;;;;;5072986;28;20025;-59
2021/07/21 12:30:20;;;;;;;10.68;8.15;;;717.20;1305.60;;;;;;5072279;28;19905;-62